Here is the Quick Look data you requested

The Data originates at the National Weather Service, and is made available here by the UAlbany Department of Atmospheric and Environmental Sciences

Surface Observations

KBWI 220354Z 34008KT 10SM SCT080 BKN140 16/08 A3008 RMK AO2 SLP187 T01560083 $=
KBWI 220454Z 33008KT 10SM SCT080 BKN140 15/08 A3008 RMK AO2 SLP185 T01500078
 402060111 $=
KBWI 220554Z 32006KT 10SM SCT080 14/08 A3007 RMK AO2 SLP181 T01390078 10167
 20133 50000 $=
KBWI 220654Z 32006KT 10SM FEW080 SCT140 13/07 A3006 RMK AO2 SLP177 T01330072 $=
KBWI 220754Z 31003KT 10SM BKN085 13/07 A3006 RMK AO2 SLP177 T01330072 $=
KBWI 220854Z 33007KT 10SM SCT085 BKN140 13/08 A3006 RMK AO2 SLP177 T01280078
 55004 $=
KBWI 220954Z 27003KT 10SM SCT065 BKN080 13/08 A3008 RMK AO2 SLP185 T01280083 $=
KBWI 221054Z 29004KT 10SM SCT065 BKN085 BKN140 13/09 A3009 RMK AO2 SLP188
 T01330089 $=
KBWI 221154Z 29006KT 10SM FEW065 BKN085 BKN250 15/09 A3011 RMK AO2 SLP195
 T01500094 10150 20122 52018=
KBWI 221254Z 30010KT 10SM SCT048 SCT085 BKN160 BKN250 16/10 A3011 RMK AO2
 SLP196 T01610100=
KBWI 221454Z 34010KT 10SM BKN032 BKN085 BKN160 BKN250 17/09 A3012 RMK AO2
 SLP200 T01720094 53005=
KBWI 221654Z 35011G18KT 10SM FEW038 SCT070 BKN160 BKN250 19/09 A3010 RMK AO2
 SLP191 T01940089=
KBWI 221754Z 32009G17KT 10SM SCT044 SCT085 SCT160 SCT250 22/10 A3008 RMK AO2
 SLP184 T02170100 10217 20144 58016=
KBWI 221854Z 34012G17KT 10SM SCT048 SCT085 SCT160 BKN250 21/09 A3006 RMK AO2
 SLP178 T02110089=
KBWI 221954Z 34009G17KT 10SM SCT055 SCT100 BKN160 BKN250 21/08 A3004 RMK AO2
 SLP170 T02110083=
KBWI 222154Z 31009G15KT 10SM FEW055 FEW100 FEW160 BKN250 22/08 A3002 RMK AO2
 SLP166 T02220083=
KBWI 222254Z 32008KT 10SM FEW060 FEW100 FEW160 BKN250 22/08 A3003 RMK AO2
 SLP170 T02170083=
KBWI 222354Z 32005KT 10SM FEW055 FEW160 SCT250 20/08 A3005 RMK AO2 SLP174
 T02000078 10228 20200 53006=
KBWI 230054Z VRB03KT 10SM FEW055 FEW250 19/08 A3005 RMK AO2 SLP176 T01890078=
KBWI 230154Z 00000KT 10SM FEW250 17/08 A3006 RMK AO2 SLP178 T01720083=
KBWI 230254Z 00000KT 10SM CLR 14/09 A3006 RMK AO2 SLP179 T01390089 51005=
KBWI 230354Z 26004KT 10SM CLR 12/09 A3007 RMK AO2 SLP180 T01220094=
KBWI 230454Z 28003KT 10SM CLR 13/09 A3006 RMK AO2 SLP179 T01280094 402280111=
KBWI 230554Z 25005KT 10SM CLR 13/09 A3005 RMK AO2 SLP176 T01280089 10200 20111
 58003=
KBWI 230654Z 00000KT 10SM CLR 13/08 A3005 RMK AO2 SLP175 T01280083=
KBWI 230754Z 00000KT 10SM CLR 12/08 A3004 RMK AO2 SLP170 T01220083=
KBWI 230854Z 00000KT 10SM CLR 10/08 A3003 RMK AO2 SLP169 T01000083 58007=
KBWI 230954Z 25003KT 10SM FEW250 09/08 A3003 RMK AO2 SLP169 T00940083=